This is the latest recevied weather packets stored in our database for station/object VK4TOM-13. If no packets are shown the sender has not sent any weather packets the latest 10 day(s).
| Time | Temp. | Humidity | Pressure | Rain* | Wind** | Luminosity | Snow |
|---|---|---|---|---|---|---|---|
| 1778193760 | 19.44° C | 70% | 1020.7 hPa | 0 mm | - | - | - |
| 1778193159 | 19.44° C | 70% | 1020.5 hPa | 0 mm | - | - | - |
| 1778192558 | 18.33° C | 70% | 1020.5 hPa | 0 mm | - | - | - |
| 1778191957 | 17.78° C | 70% | 1020.5 hPa | 0 mm | - | - | - |
| 1778191356 | 17.22° C | 70% | 1020.4 hPa | 0 mm | - | - | - |
| 1778190754 | 16.67° C | 70% | 1020.4 hPa | 0 mm | - | - | - |
| 1778190154 | 16.11° C | 70% | 1020.4 hPa | 0 mm | - | - | - |
| 1778189552 | 15.56° C | 70% | 1020.3 hPa | 0 mm | - | - | - |
| 1778188952 | 15.56° C | 70% | 1020.2 hPa | 0 mm | - | - | - |
| 1778188350 | 15.56° C | 70% | 1020.1 hPa | 0 mm | - | - | - |
| 1778187749 | 15.56° C | 70% | 1019.8 hPa | 0 mm | - | - | - |
| 1778187148 | 16.11° C | 70% | 1019.6 hPa | 0 mm | - | - | - |
| 1778186547 | 16.11° C | 70% | 1019.4 hPa | 0 mm | - | - | - |
| 1778185946 | 16.11° C | 70% | 1019.3 hPa | 0 mm | - | - | - |
| 1778185345 | 15.56° C | 70% | 1019.3 hPa | 0 mm | - | - | - |
| 1778184744 | 15.56° C | 70% | 1019 hPa | 0 mm | - | - | - |
| 1778184143 | 15.56° C | 70% | 1018.8 hPa | 0 mm | - | - | - |
| 1778183542 | 15.56° C | 70% | 1018.8 hPa | 0 mm | - | - | - |
| 1778182941 | 15.56° C | 70% | 1018.6 hPa | 0 mm | - | - | - |
| 1778182340 | 15.56° C | 70% | 1018.6 hPa | 0 mm | - | - | - |
| 1778181739 | 15.56° C | 70% | 1018.3 hPa | 0 mm | - | - | - |
| 1778181137 | 15.56° C | 70% | 1018.1 hPa | 0 mm | - | - | - |
| 1778180536 | 15.56° C | 70% | 1018 hPa | 0 mm | - | - | - |
| 1778179935 | 15.56° C | 70% | 1017.9 hPa | 0 mm | - | - | - |
| 1778179334 | 15° C | 70% | 1018 hPa | 0 mm | - | - | - |
* Rain since midnight (hover to see other rain measurements)
** Current wind speed in m/s (hover to see current wind gust speed)